Observation data for Denver City on 05/15/2018      Previous  Date       Current Mesonet Observations  Soil Data  Daily Summary Page  Observations in Plain Language
KDVS 150500Z 15009KT 21/05 A2995 RMK A01 T02130046  RH  034%=      5-min Rain = 0
KDVS 150505Z 15010KT 21/05 A2996 RMK A01 T02070049  RH  036%=      5-min Rain = 0
KDVS 150510Z 16011G18KT 21/05 A2996 RMK A01 T02070048  RH  036%=      5-min Rain = 0
KDVS 150515Z 17012KT 21/05 A2996 RMK A01 T02120045  RH  034%=      5-min Rain = 0
KDVS 150520Z 16013KT 21/05 A2996 RMK A01 T02140047  RH  034%=      5-min Rain = 0
KDVS 150525Z 16012KT 21/05 A2996 RMK A01 T02140050  RH  035%=      5-min Rain = 0
KDVS 150530Z 17012KT 21/05 A2996 RMK A01 T02110054  RH  036%=      5-min Rain = 0
KDVS 150535Z 17012KT 21/06 A2996 RMK A01 T02100061  RH  039%=      5-min Rain = 0
KDVS 150540Z 17013KT 21/07 A2996 RMK A01 T02090070  RH  042%=      5-min Rain = 0
KDVS 150545Z 17013KT 21/08 A2996 RMK A01 T02080080  RH  045%=      5-min Rain = 0
KDVS 150550Z 17013KT 21/09 A2996 RMK A01 T02080093  RH  049%=      5-min Rain = 0
KDVS 150555Z 17013G18KT 21/10 A2996 RMK A01 T02080101  RH  052%=      5-min Rain = 0
KDVS 150600Z 17014KT 21/11 A2996 RMK A01 T02080106  RH  054%=      5-min Rain = 0
KDVS 150605Z 17014KT 21/11 A2996 RMK A01 T02070109  RH  055%=      5-min Rain = 0
KDVS 150610Z 17013G18KT 21/11 A2996 RMK A01 T02050112  RH  057%=      5-min Rain = 0
KDVS 150615Z 17015KT 20/12 A2996 RMK A01 T02040115  RH  059%=      5-min Rain = 0
KDVS 150620Z 17013KT 20/12 A2996 RMK A01 T02030118  RH  060%=      5-min Rain = 0
KDVS 150625Z 17013KT 20/12 A2996 RMK A01 T02010121  RH  062%=      5-min Rain = 0
KDVS 150630Z 17011KT 20/12 A2996 RMK A01 T02000124  RH  064%=      5-min Rain = 0
KDVS 150635Z 16012KT 20/13 A2996 RMK A01 T01990126  RH  065%=      5-min Rain = 0
KDVS 150640Z 16012KT 20/13 A2997 RMK A01 T01970128  RH  067%=      5-min Rain = 0
KDVS 150645Z 17011KT 20/13 A2997 RMK A01 T01960131  RH  069%=      5-min Rain = 0
KDVS 150650Z 17011KT 20/13 A2997 RMK A01 T01950133  RH  070%=      5-min Rain = 0
KDVS 150655Z 17012KT 20/14 A2997 RMK A01 T01950137  RH  072%=      5-min Rain = 0
KDVS 150700Z 17012KT 20/14 A2997 RMK A01 T01950140  RH  074%=      5-min Rain = 0
KDVS 150705Z 17011KT 20/14 A2997 RMK A01 T01950143  RH  075%=      5-min Rain = 0
KDVS 150710Z 16011KT 19/15 A2997 RMK A01 T01940145  RH  076%=      5-min Rain = 0
KDVS 150715Z 17011G16KT 19/15 A2997 RMK A01 T01940147  RH  078%=      5-min Rain = 0
KDVS 150720Z 17011KT 19/15 A2997 RMK A01 T01940148  RH  078%=      5-min Rain = 0
KDVS 150725Z 16011KT 19/15 A2997 RMK A01 T01930149  RH  079%=      5-min Rain = 0
KDVS 150730Z 17011KT 19/15 A2997 RMK A01 T01920150  RH  080%=      5-min Rain = 0
KDVS 150735Z 17010KT 19/15 A2997 RMK A01 T01910150  RH  081%=      5-min Rain = 0
KDVS 150740Z 17010KT 19/15 A2997 RMK A01 T01890150  RH  082%=      5-min Rain = 0
KDVS 150745Z 17009KT 19/15 A2997 RMK A01 T01880150  RH  082%=      5-min Rain = 0
KDVS 150750Z 17010KT 19/15 A2997 RMK A01 T01870151  RH  083%=      5-min Rain = 0
KDVS 150755Z 17010KT 19/15 A2997 RMK A01 T01870152  RH  084%=      5-min Rain = 0
KDVS 150800Z 17010KT 19/15 A2997 RMK A01 T01860152  RH  084%=      5-min Rain = 0
KDVS 150805Z 17011KT 19/15 A2997 RMK A01 T01850152  RH  085%=      5-min Rain = 0
KDVS 150810Z 17010KT 19/15 A2997 RMK A01 T01850152  RH  085%=      5-min Rain = 0
KDVS 150815Z 17011KT 18/15 A2997 RMK A01 T01840153  RH  086%=      5-min Rain = 0
KDVS 150820Z 17011KT 18/15 A2997 RMK A01 T01840153  RH  086%=      5-min Rain = 0
KDVS 150825Z 17011KT 18/15 A2997 RMK A01 T01830153  RH  086%=      5-min Rain = 0
KDVS 150830Z 17010KT 18/15 A2997 RMK A01 T01820152  RH  087%=      5-min Rain = 0
KDVS 150835Z 17011KT 18/15 A2997 RMK A01 T01810152  RH  087%=      5-min Rain = 0
KDVS 150840Z 17011KT 18/15 A2996 RMK A01 T01810152  RH  087%=      5-min Rain = 0
KDVS 150845Z 17010KT 18/15 A2996 RMK A01 T01800152  RH  088%=      5-min Rain = 0
KDVS 150850Z 17011KT 18/15 A2996 RMK A01 T01780152  RH  088%=      5-min Rain = 0
KDVS 150855Z 17011G16KT 18/15 A2996 RMK A01 T01780151  RH  088%=      5-min Rain = 0
KDVS 150900Z 17011KT 18/15 A2996 RMK A01 T01770151  RH  088%=      5-min Rain = 0
KDVS 150905Z 17010KT 18/15 A2996 RMK A01 T01770150  RH  088%=      5-min Rain = 0
KDVS 150910Z 17010KT 18/15 A2996 RMK A01 T01760150  RH  089%=      5-min Rain = 0
KDVS 150915Z 16010KT 18/15 A2996 RMK A01 T01750150  RH  089%=      5-min Rain = 0
KDVS 150920Z 17010KT 17/15 A2996 RMK A01 T01740150  RH  089%=      5-min Rain = 0
KDVS 150925Z 17009KT 17/15 A2996 RMK A01 T01730149  RH  090%=      5-min Rain = 0
KDVS 150930Z 16009KT 17/15 A2997 RMK A01 T01720149  RH  090%=      5-min Rain = 0
KDVS 150935Z 17009KT 17/15 A2997 RMK A01 T01710149  RH  090%=      5-min Rain = 0
KDVS 150940Z 17009KT 17/15 A2997 RMK A01 T01710149  RH  091%=      5-min Rain = 0
KDVS 150945Z 17010KT 17/15 A2997 RMK A01 T01710149  RH  091%=      5-min Rain = 0
KDVS 150950Z 17009KT 17/15 A2997 RMK A01 T01700149  RH  091%=      5-min Rain = 0
KDVS 150955Z 17009KT 17/15 A2997 RMK A01 T01700148  RH  091%=      5-min Rain = 0
KDVS 151000Z 17009KT 17/15 A2997 RMK A01 T01690148  RH  091%=      5-min Rain = 0
KDVS 151005Z 18009KT 17/15 A2997 RMK A01 T01680147  RH  091%=      5-min Rain = 0
KDVS 151010Z 18009KT 17/15 A2997 RMK A01 T01680147  RH  091%=      5-min Rain = 0
KDVS 151015Z 18009KT 17/15 A2997 RMK A01 T01670146  RH  091%=      5-min Rain = 0
KDVS 151020Z 18008KT 17/15 A2997 RMK A01 T01670146  RH  091%=      5-min Rain = 0
KDVS 151025Z 18008KT 17/15 A2997 RMK A01 T01670146  RH  091%=      5-min Rain = 0
KDVS 151030Z 18008KT 17/15 A2997 RMK A01 T01660145  RH  091%=      5-min Rain = 0
KDVS 151035Z 18008KT 17/15 A2997 RMK A01 T01650145  RH  091%=      5-min Rain = 0
KDVS 151040Z 18008KT 17/15 A2997 RMK A01 T01650145  RH  092%=      5-min Rain = 0
KDVS 151045Z 18008KT 17/15 A2997 RMK A01 T01660145  RH  092%=      5-min Rain = 0
KDVS 151050Z 19007KT 16/14 A2997 RMK A01 T01640144  RH  092%=      5-min Rain = 0
KDVS 151055Z 19007KT 16/14 A2997 RMK A01 T01640144  RH  092%=      5-min Rain = 0
KDVS 151100Z 19006KT 16/14 A2997 RMK A01 T01630144  RH  092%=      5-min Rain = 0
KDVS 151105Z 19006KT 16/14 A2997 RMK A01 T01630143  RH  092%=      5-min Rain = 0
KDVS 151110Z 20006KT 16/14 A2997 RMK A01 T01620143  RH  092%=      5-min Rain = 0
KDVS 151115Z 20006KT 16/14 A2997 RMK A01 T01610142  RH  093%=      5-min Rain = 0
KDVS 151120Z 21006KT 16/14 A2997 RMK A01 T01610142  RH  093%=      5-min Rain = 0
KDVS 151125Z 20007KT 16/14 A2997 RMK A01 T01600142  RH  093%=      5-min Rain = 0
KDVS 151130Z 21006KT 16/14 A2997 RMK A01 T01590141  RH  093%=      5-min Rain = 0
KDVS 151135Z 21006KT 16/14 A2997 RMK A01 T01580140  RH  093%=      5-min Rain = 0
KDVS 151140Z 23006KT 16/14 A2998 RMK A01 T01580140  RH  093%=      5-min Rain = 0
KDVS 151145Z 23006KT 16/14 A2998 RMK A01 T01590142  RH  094%=      5-min Rain = 0
KDVS 151150Z 24006KT 16/14 A2998 RMK A01 T01600143  RH  093%=      5-min Rain = 0
KDVS 151155Z 23005KT 16/15 A2999 RMK A01 T01620145  RH  093%=      5-min Rain = 0
KDVS 151200Z 22005KT 16/15 A2999 RMK A01 T01640145  RH  093%=      5-min Rain = 0
KDVS 151205Z 21005KT 17/15 A2999 RMK A01 T01650146  RH  092%=      5-min Rain = 0
KDVS 151210Z 21007KT 17/15 A2999 RMK A01 T01670148  RH  092%=      5-min Rain = 0
KDVS 151215Z 21006KT 17/15 A30 RMK A01 T01690149  RH  092%=      5-min Rain = 0
KDVS 151220Z 21006KT 17/15 A30 RMK A01 T01710150  RH  092%=      5-min Rain = 0
KDVS 151225Z 21006KT 17/15 A30 RMK A01 T01720152  RH  092%=      5-min Rain = 0
KDVS 151230Z 22006KT 17/15 A30 RMK A01 T01740153  RH  091%=      5-min Rain = 0
KDVS 151235Z 21008KT 18/15 A30 RMK A01 T01750154  RH  091%=      5-min Rain = 0
KDVS 151240Z 21010KT 18/16 A30 RMK A01 T01770156  RH  091%=      5-min Rain = 0
KDVS 151245Z 21011KT 18/16 A30 RMK A01 T01800158  RH  091%=      5-min Rain = 0
KDVS 151250Z 21011KT 18/16 A3001 RMK A01 T01810158  RH  090%=      5-min Rain = 0
KDVS 151255Z 21009KT 18/16 A3001 RMK A01 T01830159  RH  090%=      5-min Rain = 0
KDVS 151300Z 22010KT 18/16 A3001 RMK A01 T01840159  RH  089%=      5-min Rain = 0
KDVS 151305Z 21011KT 19/16 A30 RMK A01 T01860159  RH  089%=      5-min Rain = 0
KDVS 151310Z 21011KT 19/16 A3001 RMK A01 T01870160  RH  088%=      5-min Rain = 0
KDVS 151315Z 21013KT 19/16 A3001 RMK A01 T01880159  RH  087%=      5-min Rain = 0
KDVS 151320Z 21012KT 19/16 A3001 RMK A01 T01880159  RH  087%=      5-min Rain = 0
KDVS 151325Z 22012KT 19/16 A3001 RMK A01 T01900159  RH  086%=      5-min Rain = 0
KDVS 151330Z 22010KT 19/16 A3001 RMK A01 T01920159  RH  085%=      5-min Rain = 0
KDVS 151335Z 21010KT 19/16 A3001 RMK A01 T01930159  RH  084%=      5-min Rain = 0
KDVS 151340Z 21011KT 19/16 A3001 RMK A01 T01940159  RH  084%=      5-min Rain = 0
KDVS 151345Z 22009KT 20/16 A3001 RMK A01 T01970159  RH  083%=      5-min Rain = 0
KDVS 151350Z 22009KT 20/16 A3001 RMK A01 T01990159  RH  081%=      5-min Rain = 0
KDVS 151355Z 23010KT 20/16 A3002 RMK A01 T02010159  RH  080%=      5-min Rain = 0
KDVS 151400Z 23011KT 20/16 A3001 RMK A01 T02040158  RH  078%=      5-min Rain = 0
KDVS 151405Z 23010KT 21/16 A3001 RMK A01 T02060158  RH  078%=      5-min Rain = 0
KDVS 151410Z 23011KT 21/16 A3001 RMK A01 T02100157  RH  075%=      5-min Rain = 0
KDVS 151415Z 23011KT 21/16 A3001 RMK A01 T02130155  RH  073%=      5-min Rain = 0
KDVS 151420Z 22011KT 22/15 A3002 RMK A01 T02170153  RH  070%=      5-min Rain = 0
KDVS 151425Z 23011KT 22/15 A3002 RMK A01 T02210150  RH  067%=      5-min Rain = 0
KDVS 151430Z 23011KT 22/15 A3002 RMK A01 T02240150  RH  066%=      5-min Rain = 0
KDVS 151435Z 23011KT 23/15 A3001 RMK A01 T02250150  RH  065%=      5-min Rain = 0
KDVS 151440Z 23010KT 23/15 A3001 RMK A01 T02290149  RH  063%=      5-min Rain = 0
KDVS 151445Z 23012KT 23/14 A3001 RMK A01 T02320141  RH  059%=      5-min Rain = 0
KDVS 151450Z 23011KT 24/14 A3001 RMK A01 T02350139  RH  057%=      5-min Rain = 0
KDVS 151455Z 23011KT 24/14 A3001 RMK A01 T02380140  RH  056%=      5-min Rain = 0
KDVS 151500Z 24009KT 24/14 A3001 RMK A01 T02420137  RH  054%=      5-min Rain = 0
KDVS 151505Z 23009KT 25/14 A3001 RMK A01 T02470137  RH  053%=      5-min Rain = 0
KDVS 151510Z 23009KT 25/13 A3001 RMK A01 T02520133  RH  050%=      5-min Rain = 0
KDVS 151515Z 24009KT 26/13 A3001 RMK A01 T02550125  RH  046%=      5-min Rain = 0
KDVS 151520Z 23008KT 26/12 A3001 RMK A01 T02610124  RH  044%=      5-min Rain = 0
KDVS 151525Z 23009KT 27/12 A3001 RMK A01 T02650120  RH  042%=      5-min Rain = 0
KDVS 151530Z 24010KT 27/11 A3002 RMK A01 T02680111  RH  039%=      5-min Rain = 0
KDVS 151535Z 24009KT 27/11 A3002 RMK A01 T02730109  RH  037%=      5-min Rain = 0
KDVS 151540Z 26009KT 28/10 A3002 RMK A01 T02790100  RH  034%=      5-min Rain = 0
KDVS 151545Z 26009KT 28/10 A3002 RMK A01 T02820097  RH  032%=      5-min Rain = 0
KDVS 151550Z 26010KT 28/09 A3002 RMK A01 T02840093  RH  031%=      5-min Rain = 0
KDVS 151555Z 26009KT 29/09 A3002 RMK A01 T02880090  RH  030%=      5-min Rain = 0
KDVS 151600Z 27009KT 29/09 A3002 RMK A01 T02910086  RH  029%=      5-min Rain = 0
KDVS 151605Z 28009KT 29/08 A3002 RMK A01 T02940077  RH  026%=      5-min Rain = 0
KDVS 151610Z 29010KT 30/07 A3002 RMK A01 T02990066  RH  024%=      5-min Rain = 0
KDVS 151615Z 30011G16KT 30/07 A3002 RMK A01 T03020067  RH  024%=      5-min Rain = 0
KDVS 151620Z 31011G17KT 30/07 A3002 RMK A01 T02980074  RH  025%=      5-min Rain = 0
KDVS 151625Z 31009KT 30/08 A3002 RMK A01 T02980077  RH  026%=      5-min Rain = 0
KDVS 151630Z 30010KT 30/06 A3002 RMK A01 T03010064  RH  023%=      5-min Rain = 0
KDVS 151635Z 31011KT 31/07 A3002 RMK A01 T03060071  RH  023%=      5-min Rain = 0
KDVS 151640Z 30009KT 31/05 A3002 RMK A01 T03050054  RH  021%=      5-min Rain = 0
KDVS 151645Z 30010G15KT 31/05 A3002 RMK A01 T03050047  RH  020%=      5-min Rain = 0
KDVS 151650Z 30009G14KT 31/04 A3002 RMK A01 T03070037  RH  018%=      5-min Rain = 0
KDVS 151655Z 30007G12KT 31/02 A3002 RMK A01 T03070019  RH  016%=      5-min Rain = 0
KDVS 151700Z 32005KT 31/02 A3002 RMK A01 T03090023  RH  016%=      5-min Rain = 0
KDVS 151705Z 30008KT 31/03 A3002 RMK A01 T03110025  RH  016%=      5-min Rain = 0
KDVS 151710Z 34007KT 31/02 A3002 RMK A01 T03140016  RH  015%=      5-min Rain = 0
KDVS 151715Z 32005G12KT 31/02 A3002 RMK A01 T03140023  RH  016%=      5-min Rain = 0
KDVS 151720Z 31006G11KT 32/02 A3002 RMK A01 T03170021  RH  015%=      5-min Rain = 0
KDVS 151725Z 30005G12KT 32/02 A3002 RMK A01 T03160015  RH  015%=      5-min Rain = 0
KDVS 151730Z 33008KT 32/01 A3002 RMK A01 T03170009  RH  014%=      5-min Rain = 0
KDVS 151735Z 33005KT 32/01 A3002 RMK A01 T03190006  RH  014%=      5-min Rain = 0
KDVS 151740Z 30004KT 32/00 A3002 RMK A01 T03220001  RH  013%=      5-min Rain = 0
KDVS 151745Z 24004KT 32/M00 A3002 RMK A01 T03181001  RH  013%=      5-min Rain = 0
KDVS 151750Z 32004G9KT 32/00 A3002 RMK A01 T031800-0  RH  013%=      5-min Rain = 0
KDVS 151755Z 32009KT 32/00 A3001 RMK A01 T03220001  RH  013%=      5-min Rain = 0
KDVS 151800Z 33008KT 33/00 A3001 RMK A01 T03260000  RH  013%=      5-min Rain = 0
KDVS 151805Z 36006G13KT 32/M00 A3001 RMK A01 T03241001  RH  013%=      5-min Rain = 0
KDVS 151810Z 03004KT 32/M00 A3001 RMK A01 T03241002  RH  013%=      5-min Rain = 0
KDVS 151815Z 34005G12KT 33/00 A3001 RMK A01 T03270002  RH  013%=      5-min Rain = 0
KDVS 151820Z 36008G13KT 33/00 A3001 RMK A01 T03250002  RH  013%=      5-min Rain = 0
KDVS 151825Z 36006G13KT 33/00 A3001 RMK A01 T03250002  RH  013%=      5-min Rain = 0
KDVS 151830Z 02006G11KT 33/00 A3001 RMK A01 T03250002  RH  013%=      5-min Rain = 0
KDVS 151835Z 05006KT 33/01 A30 RMK A01 T03290006  RH  013%=      5-min Rain = 0
KDVS 151840Z 36009G14KT 33/01 A30 RMK A01 T03300013  RH  014%=      5-min Rain = 0
KDVS 151845Z 34007G12KT 33/02 A30 RMK A01 T03310017  RH  014%=      5-min Rain = 0
KDVS 151850Z 02010KT 33/02 A30 RMK A01 T03340019  RH  014%=      5-min Rain = 0
KDVS 151855Z 03008G18KT 33/02 A30 RMK A01 T03310016  RH  014%=      5-min Rain = 0
KDVS 151900Z 03011KT 33/01 A2999 RMK A01 T03340014  RH  013%=      5-min Rain = 0
KDVS 151905Z 01010G15KT 33/01 A2999 RMK A01 T03330013  RH  013%=      5-min Rain = 0
KDVS 151910Z 02007G12KT 34/01 A2999 RMK A01 T03350005  RH  012%=      5-min Rain = 0
KDVS 151915Z 06007KT 33/00 A2999 RMK A01 T03330003  RH  012%=      5-min Rain = 0
KDVS 151920Z 01009KT 34/01 A2999 RMK A01 T03350013  RH  013%=      5-min Rain = 0
KDVS 151925Z 04005KT 34/01 A2999 RMK A01 T03390011  RH  013%=      5-min Rain = 0
KDVS 151930Z 05008G13KT 34/01 A2998 RMK A01 T03400013  RH  013%=      5-min Rain = 0
KDVS 151935Z 06006KT 34/01 A2998 RMK A01 T03390012  RH  013%=      5-min Rain = 0
KDVS 151940Z 35006G13KT 34/01 A2998 RMK A01 T03370013  RH  013%=      5-min Rain = 0
KDVS 151945Z 35011G16KT 33/01 A2998 RMK A01 T03310013  RH  013%=      5-min Rain = 0
KDVS 151950Z 00011KT 33/01 A2998 RMK A01 T03250011  RH  014%=      5-min Rain = 0
KDVS 151955Z 00006G12KT 32/01 A2998 RMK A01 T03200009  RH  014%=      5-min Rain = 0
KDVS 152000Z 02008KT 32/00 A2998 RMK A01 T03190004  RH  014%=      5-min Rain = 0
KDVS 152005Z 01007KT 32/01 A2998 RMK A01 T03200005  RH  014%=      5-min Rain = 0
KDVS 152010Z 03002KT 32/00 A2998 RMK A01 T03180004  RH  014%=      5-min Rain = 0
KDVS 152015Z 32005KT 32/M00 A2998 RMK A01 T03191001  RH  013%=      5-min Rain = 0
KDVS 152020Z 30006G11KT 32/M01 A2998 RMK A01 T03191007  RH  012%=      5-min Rain = 0
KDVS 152025Z 31005G11KT 32/M00 A2998 RMK A01 T03181004  RH  013%=      5-min Rain = 0
KDVS 152030Z 26006G18KT 32/00 A2998 RMK A01 T031900-0  RH  013%=      5-min Rain = 0
KDVS 152035Z 22012G19KT 32/M01 A2997 RMK A01 T03221008  RH  012%=      5-min Rain = 0
KDVS 152040Z 20003G9KT 33/M01 A2997 RMK A01 T03261013  RH  011%=      5-min Rain = 0
KDVS 152045Z 15004G9KT 34/M01 A2996 RMK A01 T03371011  RH  011%=      5-min Rain = 0
KDVS 152050Z 16003KT 33/M01 A2996 RMK A01 T03341012  RH  011%=      5-min Rain = 0
KDVS 152055Z 03006KT 33/M01 A2996 RMK A01 T03281006  RH  012%=      5-min Rain = 0
KDVS 152100Z 05007KT 32/M01 A2995 RMK A01 T03241006  RH  012%=      5-min Rain = 0
KDVS 152105Z 06002KT 32/M01 A2995 RMK A01 T03201007  RH  012%=      5-min Rain = 0
KDVS 152110Z 11006KT 32/M01 A2996 RMK A01 T03201006  RH  012%=      5-min Rain = 0
KDVS 152115Z 20009G19KT 32/M00 A2996 RMK A01 T03221001  RH  013%=      5-min Rain = 0
KDVS 152120Z 22005KT 32/M01 A2995 RMK A01 T03241009  RH  012%=      5-min Rain = 0
KDVS 152125Z 00007G12KT 32/M01 A2994 RMK A01 T03231010  RH  012%=      5-min Rain = 0
KDVS 152130Z 17004KT 33/M01 A2994 RMK A01 T03321009  RH  011%=      5-min Rain = 0
KDVS 152135Z 24006G11KT 34/M01 A2994 RMK A01 T03351006  RH  011%=      5-min Rain = 0
KDVS 152140Z 23004KT 34/M01 A2994 RMK A01 T03351007  RH  011%=      5-min Rain = 0
KDVS 152145Z 00005KT 34/M01 A2994 RMK A01 T03371006  RH  011%=      5-min Rain = 0
KDVS 152150Z 06005KT 34/M01 A2993 RMK A01 T03391007  RH  011%=      5-min Rain = 0
KDVS 152155Z 08005KT 33/M01 A2993 RMK A01 T03281009  RH  012%=      5-min Rain = 0
KDVS 152200Z 13001KT 33/M01 A2993 RMK A01 T03251009  RH  012%=      5-min Rain = 0
KDVS 152205Z 27002G7KT 33/M01 A2993 RMK A01 T03261009  RH  012%=      5-min Rain = 0
KDVS 152210Z 34002KT 33/M01 A2993 RMK A01 T03251008  RH  012%=      5-min Rain = 0
KDVS 152215Z 02002KT 33/M01 A2993 RMK A01 T03311007  RH  012%=      5-min Rain = 0
KDVS 152220Z 24004KT 33/M01 A2992 RMK A01 T03331008  RH  011%=      5-min Rain = 0
KDVS 152225Z 26002KT 33/M01 A2992 RMK A01 T03311010  RH  011%=      5-min Rain = 0
KDVS 152230Z 32005KT 33/M01 A2992 RMK A01 T03291008  RH  012%=      5-min Rain = 0
KDVS 152235Z 29008G13KT 33/M01 A2992 RMK A01 T03281008  RH  012%=      5-min Rain = 0
KDVS 152240Z 31006G11KT 33/M01 A2992 RMK A01 T03251008  RH  012%=      5-min Rain = 0
KDVS 152245Z 32004KT 33/M01 A2992 RMK A01 T03251009  RH  012%=      5-min Rain = 0
KDVS 152250Z 31003KT 33/M01 A2992 RMK A01 T03281012  RH  011%=      5-min Rain = 0
KDVS 152255Z 27003KT 33/M01 A2991 RMK A01 T03261012  RH  011%=      5-min Rain = 0
KDVS 152300Z 34003KT 33/M01 A2991 RMK A01 T03261011  RH  012%=      5-min Rain = 0
KDVS 152305Z 34005KT 33/M01 A2991 RMK A01 T03281012  RH  011%=      5-min Rain = 0
KDVS 152310Z 28002KT 33/M01 A2991 RMK A01 T03321013  RH  011%=      5-min Rain = 0
KDVS 152315Z 24003KT 33/M01 A2991 RMK A01 T03311013  RH  011%=      5-min Rain = 0
KDVS 152320Z 24002KT 33/M01 A2991 RMK A01 T03251013  RH  011%=      5-min Rain = 0
KDVS 152325Z 32007KT 33/M02 A2991 RMK A01 T03251017  RH  011%=      5-min Rain = 0
KDVS 152330Z 30007KT 33/M02 A299 RMK A01 T03271021  RH  011%=      5-min Rain = 0
KDVS 152335Z 30005KT 33/M02 A299 RMK A01 T03281020  RH  011%=      5-min Rain = 0
KDVS 152340Z 30006KT 33/M02 A299 RMK A01 T03311021  RH  010%=      5-min Rain = 0
KDVS 152345Z 30007KT 33/M03 A299 RMK A01 T03271031  RH  010%=      5-min Rain = 0
KDVS 152350Z 28005G10KT 33/M03 A299 RMK A01 T03291030  RH  010%=      5-min Rain = 0
KDVS 152355Z 26006KT 33/M03 A299 RMK A01 T03331027  RH  010%=      5-min Rain = 0
KDVS 160000Z 26012G17KT 34/M04 A299 RMK A01 T03361035  RH  009%=      5-min Rain = 0
KDVS 160005Z 25012KT 34/M05 A299 RMK A01 T03361046  RH  008%=      5-min Rain = 0
KDVS 160010Z 25012G18KT 34/M05 A299 RMK A01 T03351046  RH  008%=      5-min Rain = 0
KDVS 160015Z 25013KT 33/M05 A299 RMK A01 T03341048  RH  008%=      5-min Rain = 0
KDVS 160020Z 24012G17KT 33/M05 A299 RMK A01 T03321048  RH  008%=      5-min Rain = 0
KDVS 160025Z 25012KT 33/M05 A299 RMK A01 T03311047  RH  009%=      5-min Rain = 0
KDVS 160030Z 27009KT 33/M05 A299 RMK A01 T03271047  RH  009%=      5-min Rain = 0
KDVS 160035Z 27009KT 32/M05 A299 RMK A01 T03241048  RH  009%=      5-min Rain = 0
KDVS 160040Z 26008KT 33/M05 A299 RMK A01 T03261047  RH  009%=      5-min Rain = 0
KDVS 160045Z 27008KT 33/M05 A299 RMK A01 T03271047  RH  009%=      5-min Rain = 0
KDVS 160050Z 26007KT 33/M05 A299 RMK A01 T03271047  RH  009%=      5-min Rain = 0
KDVS 160055Z 25006KT 33/M05 A299 RMK A01 T03261048  RH  009%=      5-min Rain = 0
KDVS 160100Z 25006KT 33/M05 A299 RMK A01 T03251046  RH  009%=      5-min Rain = 0
KDVS 160105Z 24007KT 32/M04 A299 RMK A01 T03231043  RH  009%=      5-min Rain = 0
KDVS 160110Z 24006KT 32/M04 A299 RMK A01 T03201039  RH  010%=      5-min Rain = 0
KDVS 160115Z 23007KT 32/M04 A299 RMK A01 T03171038  RH  010%=      5-min Rain = 0
KDVS 160120Z 24006KT 31/M04 A299 RMK A01 T03141041  RH  010%=      5-min Rain = 0
KDVS 160125Z 25006KT 31/M04 A2991 RMK A01 T03101038  RH  010%=      5-min Rain = 0
KDVS 160130Z 25006KT 31/M04 A2991 RMK A01 T03061038  RH  011%=      5-min Rain = 0
KDVS 160135Z 25006KT 30/M03 A2991 RMK A01 T03011033  RH  011%=      5-min Rain = 0
KDVS 160140Z 25006KT 30/M03 A2991 RMK A01 T02961032  RH  012%=      5-min Rain = 0
KDVS 160145Z 25006KT 29/M03 A2991 RMK A01 T02911032  RH  012%=      5-min Rain = 0
KDVS 160150Z 23007KT 29/M03 A2991 RMK A01 T02861033  RH  012%=      5-min Rain = 0
KDVS 160155Z 23006KT 28/M04 A2991 RMK A01 T02811036  RH  012%=      5-min Rain = 0
KDVS 160200Z 23006KT 28/M04 A2991 RMK A01 T02771038  RH  013%=      5-min Rain = 0
KDVS 160205Z 21005KT 28/M04 A2991 RMK A01 T02751038  RH  013%=      5-min Rain = 0
KDVS 160210Z 15011G17KT 26/M03 A2992 RMK A01 T02611026  RH  015%=      5-min Rain = 0
KDVS 160215Z 15015G23KT 26/03 A2993 RMK A01 T02570029  RH  023%=      5-min Rain = 0
KDVS 160220Z 15018G23KT 27/07 A2993 RMK A01 T02670069  RH  029%=      5-min Rain = 0
KDVS 160225Z 14015G22KT 27/07 A2994 RMK A01 T02670069  RH  029%=      5-min Rain = 0
KDVS 160230Z 14012KT 26/07 A2994 RMK A01 T02640070  RH  030%=      5-min Rain = 0
KDVS 160235Z 13009KT 26/07 A2995 RMK A01 T02610072  RH  031%=      5-min Rain = 0
KDVS 160240Z 12010G15KT 26/08 A2995 RMK A01 T02560082  RH  034%=      5-min Rain = 0
KDVS 160245Z 12013KT 25/10 A2995 RMK A01 T02520096  RH  039%=      5-min Rain = 0
KDVS 160250Z 13014KT 25/10 A2996 RMK A01 T02490098  RH  040%=      5-min Rain = 0
KDVS 160255Z 12012G18KT 25/10 A2996 RMK A01 T02480097  RH  040%=      5-min Rain = 0
KDVS 160300Z 12015G23KT 25/10 A2997 RMK A01 T02450099  RH  041%=      5-min Rain = 0
KDVS 160305Z 11014G19KT 24/10 A2997 RMK A01 T02440100  RH  042%=      5-min Rain = 0
KDVS 160310Z 12015G20KT 24/10 A2997 RMK A01 T02410103  RH  043%=      5-min Rain = 0
KDVS 160315Z 11016G22KT 24/10 A2997 RMK A01 T02380103  RH  044%=      5-min Rain = 0
KDVS 160320Z 11015KT 24/10 A2997 RMK A01 T02360102  RH  044%=      5-min Rain = 0
KDVS 160325Z 12014KT 23/10 A2998 RMK A01 T02330101  RH  045%=      5-min Rain = 0
KDVS 160330Z 12015KT 23/10 A2998 RMK A01 T02320101  RH  045%=      5-min Rain = 0
KDVS 160335Z 12013KT 23/10 A2998 RMK A01 T02300101  RH  045%=      5-min Rain = 0
KDVS 160340Z 11013KT 23/10 A2998 RMK A01 T02280101  RH  046%=      5-min Rain = 0
KDVS 160345Z 11013G18KT 23/10 A2999 RMK A01 T02270101  RH  046%=      5-min Rain = 0
KDVS 160350Z 12011KT 23/10 A2999 RMK A01 T02260102  RH  047%=      5-min Rain = 0
KDVS 160355Z 12010G15KT 22/10 A2999 RMK A01 T02240103  RH  048%=      5-min Rain = 0
KDVS 160400Z 12011KT 22/10 A2999 RMK A01 T02220103  RH  048%=      5-min Rain = 0
KDVS 160405Z 12010KT 22/10 A2999 RMK A01 T02210103  RH  049%=      5-min Rain = 0
KDVS 160410Z 12011KT 22/10 A2999 RMK A01 T02200102  RH  048%=      5-min Rain = 0
KDVS 160415Z 12011KT 22/10 A2999 RMK A01 T02200099  RH  048%=      5-min Rain = 0
KDVS 160420Z 12011KT 22/10 A2999 RMK A01 T02200098  RH  047%=      5-min Rain = 0
KDVS 160425Z 12012KT 22/10 A2999 RMK A01 T02200096  RH  047%=      5-min Rain = 0
KDVS 160430Z 12011KT 22/10 A30 RMK A01 T02190095  RH  047%=      5-min Rain = 0
KDVS 160435Z 12011KT 22/09 A30 RMK A01 T02180094  RH  046%=      5-min Rain = 0
KDVS 160440Z 11010KT 22/09 A30 RMK A01 T02170093  RH  047%=      5-min Rain = 0
KDVS 160445Z 11010KT 22/09 A30 RMK A01 T02160093  RH  047%=      5-min Rain = 0
KDVS 160450Z 11009KT 22/09 A3001 RMK A01 T02150092  RH  047%=      5-min Rain = 0
KDVS 160455Z 11007KT 21/09 A3001 RMK A01 T02140093  RH  047%=      5-min Rain = 0

Page generated in 0.0156 seconds.